Time;durP1;ratioP1;P1;durP2;ratioP2;P2;SDS_P1;SDS_P2;PMS_P1;PMS_P2;Temp;Humidity;BMP_temperature;BMP_pressure;BME280_temperature;BME280_humidity;BME280_pressure;Samples;Min_cycle;Max_cycle;Signal;HPM_P1;HPM_P2
2021/04/01 00:00:16;;;;;;;28.33;19.60;;;;;;;7.57;78.49;96541.06;5019160;28;20064;-59
2021/04/01 00:02:48;;;;;;;24.50;18.38;;;;;;;7.52;79.02;96543.56;5007327;28;20057;-59
2021/04/01 00:05:16;;;;;;;27.90;18.25;;;;;;;7.49;79.08;96547.44;5006326;28;20163;-59
2021/04/01 00:07:43;;;;;;;22.35;17.55;;;;;;;7.44;79.11;96542.03;5015281;28;20045;-59
2021/04/01 00:10:14;;;;;;;25.20;17.55;;;;;;;7.42;79.07;96543.28;5017941;28;20045;-59
2021/04/01 00:12:41;;;;;;;24.67;17.50;;;;;;;7.43;79.04;96540.44;5048180;28;20049;-59
2021/04/01 00:15:10;;;;;;;24.58;17.60;;;;;;;7.38;78.89;96527.97;5019548;28;20053;-59
2021/04/01 00:17:44;;;;;;;19.88;15.95;;;;;;;7.35;79.57;96523.16;4996363;28;20072;-59
2021/04/01 00:20:14;;;;;;;18.85;15.98;;;;;;;7.47;79.25;96540.78;5014900;28;20878;-59
2021/04/01 00:22:42;;;;;;;21.33;16.85;;;;;;;7.47;79.24;96525.84;5020614;28;20049;-59
2021/04/01 00:25:12;;;;;;;24.30;16.95;;;;;;;7.39;78.99;96524.31;5017142;28;20068;-59
2021/04/01 00:27:39;;;;;;;20.98;16.50;;;;;;;7.37;78.79;96526.34;5019089;28;20543;-59
2021/04/01 00:30:09;;;;;;;17.95;16.02;;;;;;;7.32;79.64;96517.53;5034141;28;20049;-59
2021/04/01 00:32:37;;;;;;;21.30;16.55;;;;;;;7.36;79.16;96523.97;5008234;28;20071;-59
2021/04/01 00:35:05;;;;;;;24.73;19.23;;;;;;;7.30;79.09;96514.31;5020276;28;20057;-59
2021/04/01 00:37:33;;;;;;;23.25;17.05;;;;;;;7.31;79.16;96516.75;5050753;28;20080;-59
2021/04/01 00:40:02;;;;;;;26.67;19.67;;;;;;;7.29;79.70;96517.97;5017428;28;20372;-59
2021/04/01 00:42:29;;;;;;;22.17;17.38;;;;;;;7.25;79.42;96511.56;5017248;28;20044;-59
2021/04/01 00:45:06;;;;;;;24.90;19.63;;;;;;;7.24;80.24;96505.50;5002063;28;20042;-59
2021/04/01 00:47:38;;;;;;;21.55;16.20;;;;;;;7.21;79.27;96500.69;4999746;28;20060;-59
2021/04/01 00:50:10;;;;;;;18.58;16.60;;;;;;;7.18;79.50;96501.94;5014101;28;20045;-59
2021/04/01 00:52:39;;;;;;;24.27;18.75;;;;;;;7.15;79.56;96496.34;5016510;28;20053;-59
2021/04/01 00:55:08;;;;;;;23.73;17.13;;;;;;;7.12;79.94;96502.84;5034583;28;20053;-59
2021/04/01 00:57:37;;;;;;;30.60;20.30;;;;;;;7.08;79.97;96493.78;5014059;28;20061;-59
2021/04/01 01:00:07;;;;;;;22.90;17.52;;;;;;;7.07;80.57;96500.88;5016315;28;20049;-59
2021/04/01 01:02:35;;;;;;;18.13;14.77;;;;;;;7.06;80.27;96499.25;5028567;28;20045;-59
2021/04/01 01:05:04;;;;;;;18.45;15.02;;;;;;;7.01;79.92;96491.22;5033632;28;20053;-59
2021/04/01 01:07:32;;;;;;;23.85;15.00;;;;;;;7.02;79.78;96492.84;5016107;28;20825;-59
2021/04/01 01:09:59;;;;;;;21.80;16.20;;;;;;;6.98;79.92;96491.66;5015438;28;20318;-59
2021/04/01 01:12:26;;;;;;;18.50;14.63;;;;;;;6.94;79.74;96485.25;5011050;28;20061;-59
2021/04/01 01:14:53;;;;;;;19.55;14.07;;;;;;;6.88;80.47;96481.69;5031541;28;20042;-59
2021/04/01 01:17:21;;;;;;;19.98;14.18;;;;;;;6.89;80.00;96483.28;5030870;28;20468;-59
2021/04/01 01:19:53;;;;;;;20.38;14.77;;;;;;;6.89;80.27;96480.66;5015330;28;20574;-60
2021/04/01 01:22:21;;;;;;;21.05;15.20;;;;;;;6.85;80.07;96481.31;5015883;28;20045;-59
2021/04/01 01:24:49;;;;;;;19.83;13.05;;;;;;;6.81;80.71;96480.16;5015818;28;20060;-59
2021/04/01 01:27:17;;;;;;;14.38;12.40;;;;;;;6.77;80.46;96474.53;5019836;28;20152;-59
2021/04/01 01:29:47;;;;;;;24.33;12.98;;;;;;;6.74;80.56;96473.16;5034184;28;20056;-59
2021/04/01 01:32:17;;;;;;;18.17;12.73;;;;;;;6.72;81.01;96463.91;5029002;28;20060;-59
2021/04/01 01:34:45;;;;;;;18.77;14.15;;;;;;;6.68;80.10;96466.16;5017550;28;20068;-59
2021/04/01 01:37:14;;;;;;;23.10;13.70;;;;;;;6.58;80.14;96465.84;5033513;28;20121;-59
2021/04/01 01:39:42;;;;;;;20.05;14.23;;;;;;;6.54;80.56;96465.47;5004267;28;20417;-59
2021/04/01 01:42:09;;;;;;;20.23;15.15;;;;;;;6.54;80.93;96456.81;5017389;28;20050;-59
2021/04/01 01:44:37;;;;;;;19.25;14.50;;;;;;;6.49;81.27;96444.38;5016731;28;20045;-59
2021/04/01 01:47:04;;;;;;;21.02;15.18;;;;;;;6.53;81.20;96458.63;5049527;28;20493;-60
2021/04/01 01:49:41;;;;;;;24.30;13.73;;;;;;;6.52;81.05;96456.22;5008062;28;20049;-60
2021/04/01 01:52:09;;;;;;;20.98;12.20;;;;;;;6.47;81.06;96455.03;5017066;28;20564;-59
2021/04/01 01:54:36;;;;;;;18.58;12.57;;;;;;;6.50;80.92;96448.59;5008956;28;20056;-60
2021/04/01 01:57:04;;;;;;;14.50;11.80;;;;;;;6.50;80.58;96448.59;5029956;28;20050;-59
2021/04/01 01:59:31;;;;;;;18.50;13.15;;;;;;;6.46;80.83;96450.03;5018445;28;20072;-59
2021/04/01 02:01:58;;;;;;;15.75;12.68;;;;;;;6.42;80.14;96446.22;5016734;28;20038;-59
2021/04/01 02:04:26;;;;;;;17.10;13.70;;;;;;;6.34;80.54;96439.44;4999201;28;20061;-59
2021/04/01 02:06:53;;;;;;;21.17;15.20;;;;;;;6.27;80.71;96443.94;5014185;28;20052;-59
2021/04/01 02:09:20;;;;;;;19.55;14.45;;;;;;;6.25;81.18;96445.97;5012939;28;20045;-59
2021/04/01 02:11:47;;;;;;;23.33;16.58;;;;;;;6.20;80.71;96451.06;5007454;28;20432;-59
2021/04/01 02:14:14;;;;;;;26.15;16.77;;;;;;;6.11;80.52;96442.66;5030760;28;20060;-59
2021/04/01 02:16:42;;;;;;;30.25;16.17;;;;;;;5.99;80.89;96437.28;5013680;28;20152;-59
2021/04/01 02:19:09;;;;;;;23.58;14.52;;;;;;;6.00;81.46;96436.28;5018315;28;20087;-59
2021/04/01 02:21:37;;;;;;;28.98;17.85;;;;;;;6.03;81.80;96440.31;4991736;28;20050;-59
2021/04/01 02:24:05;;;;;;;23.00;14.75;;;;;;;5.99;81.68;96432.88;5016705;28;20061;-59
2021/04/01 02:26:32;;;;;;;25.90;15.35;;;;;;;5.99;81.45;96430.28;5045326;28;20041;-59
2021/04/01 02:29:00;;;;;;;24.40;16.10;;;;;;;5.98;81.46;96435.66;5012972;28;20053;-59
2021/04/01 02:31:27;;;;;;;24.90;16.40;;;;;;;6.00;81.37;96429.25;5016021;28;20060;-58
2021/04/01 02:33:54;;;;;;;21.98;14.85;;;;;;;6.02;81.47;96423.00;5020576;28;20050;-58
2021/04/01 02:36:22;;;;;;;30.23;15.98;;;;;;;6.05;81.76;96431.22;5028847;28;20401;-57
2021/04/01 02:38:49;;;;;;;20.55;14.80;;;;;;;5.96;81.85;96414.16;5019403;28;20420;-59
2021/04/01 02:41:16;;;;;;;22.05;16.65;;;;;;;5.98;81.68;96420.78;5002059;28;20053;-59
2021/04/01 02:43:44;;;;;;;25.50;16.95;;;;;;;5.96;81.96;96414.94;5045832;28;20442;-59
2021/04/01 02:46:13;;;;;;;19.67;14.25;;;;;;;5.94;81.78;96405.72;5016216;28;20041;-59
2021/04/01 02:48:40;;;;;;;23.52;14.20;;;;;;;5.96;81.82;96411.53;5015845;28;20048;-59
2021/04/01 02:51:07;;;;;;;20.95;14.07;;;;;;;5.94;81.81;96413.56;5018534;28;20061;-60
2021/04/01 02:53:35;;;;;;;18.33;16.15;;;;;;;5.93;81.84;96401.47;5032411;28;20045;-59
2021/04/01 02:56:03;;;;;;;22.08;17.10;;;;;;;5.92;81.96;96398.06;5023392;28;20041;-59
2021/04/01 02:58:30;;;;;;;18.95;15.90;;;;;;;5.89;82.40;96406.34;5023877;28;20713;-60
2021/04/01 03:00:57;;;;;;;23.10;15.13;;;;;;;5.89;82.06;96402.91;5012368;28;20053;-59
2021/04/01 03:03:28;;;;;;;20.15;16.35;;;;;;;5.90;81.86;96397.47;5011471;28;20052;-59
2021/04/01 03:05:57;;;;;;;20.10;15.95;;;;;;;5.85;82.19;96385.00;5002695;28;20605;-59
2021/04/01 03:08:24;;;;;;;23.48;15.63;;;;;;;5.91;82.07;96396.44;5016070;28;20061;-59
2021/04/01 03:10:52;;;;;;;27.52;16.35;;;;;;;5.84;82.36;96387.84;5037913;28;20069;-59
2021/04/01 03:13:19;;;;;;;25.88;16.63;;;;;;;5.92;82.40;96399.88;5030564;28;20049;-59
2021/04/01 03:15:51;;;;;;;32.40;17.70;;;;;;;5.88;81.50;96396.06;5010467;28;20038;-59
2021/04/01 03:18:19;;;;;;;21.52;15.00;;;;;;;5.73;81.86;96389.31;5021443;28;20056;-59
2021/04/01 03:20:48;;;;;;;22.58;16.50;;;;;;;5.82;81.74;96395.94;5029825;28;20152;-59
2021/04/01 03:23:17;;;;;;;35.53;17.65;;;;;;;5.83;81.78;96400.16;5015558;28;20049;-59
2021/04/01 03:25:45;;;;;;;28.65;16.80;;;;;;;5.82;81.81;96395.09;5011276;28;20058;-59
2021/04/01 03:28:13;;;;;;;30.48;17.10;;;;;;;5.78;82.32;96396.56;5033461;28;20041;-59
2021/04/01 03:30:52;;;;;;;32.17;16.52;;;;;;;5.67;82.39;96392.81;5014913;28;20068;-59
2021/04/01 03:33:19;;;;;;;21.50;15.63;;;;;;;5.68;82.40;96397.03;5020932;28;20057;-59
2021/04/01 03:35:47;;;;;;;25.83;16.35;;;;;;;5.70;82.62;96400.25;5021534;28;20417;-59
2021/04/01 03:38:15;;;;;;;23.45;17.45;;;;;;;5.66;82.31;96391.19;5022797;28;20060;-59
2021/04/01 03:40:43;;;;;;;23.20;17.33;;;;;;;5.72;82.17;96394.78;5014741;28;20056;-59
2021/04/01 03:43:11;;;;;;;18.48;14.65;;;;;;;5.73;82.25;96388.53;5052078;28;20054;-59
2021/04/01 03:45:38;;;;;;;19.85;14.80;;;;;;;5.76;81.66;96394.16;5020227;28;20049;-59
2021/04/01 03:48:07;;;;;;;20.30;15.43;;;;;;;5.76;81.85;96391.53;5018379;28;20049;-59
2021/04/01 03:50:34;;;;;;;19.52;14.20;;;;;;;5.72;81.12;96385.13;5019499;28;20060;-59
2021/04/01 03:53:01;;;;;;;25.40;15.25;;;;;;;5.72;81.33;96393.00;5018327;28;21231;-59
2021/04/01 03:55:39;;;;;;;17.90;14.57;;;;;;;5.69;81.63;96390.78;5020849;28;20057;-59
2021/04/01 04:13:50;;;;;;;18.83;15.00;;;;;;;5.39;82.69;96378.28;5047465;28;20408;-59
2021/04/01 04:16:18;;;;;;;22.95;14.65;;;;;;;5.38;82.95;96372.28;5043525;28;20045;-59
2021/04/01 04:18:45;;;;;;;18.05;13.95;;;;;;;5.36;82.79;96376.09;5035712;28;20061;-59
2021/04/01 04:21:13;;;;;;;25.20;16.90;;;;;;;5.37;82.32;96367.22;5020182;28;20053;-59
2021/04/01 04:23:45;;;;;;;22.83;14.43;;;;;;;5.37;82.60;96372.47;5033751;28;20049;-61
2021/04/01 04:26:13;;;;;;;24.65;16.25;;;;;;;5.37;82.12;96369.84;5021724;28;20049;-59
2021/04/01 04:28:41;;;;;;;21.48;16.08;;;;;;;5.35;82.55;96364.03;5032661;28;20057;-60
2021/04/01 04:31:09;;;;;;;25.75;18.45;;;;;;;5.38;82.91;96374.88;5035333;28;20421;-59
2021/04/01 04:33:36;;;;;;;25.30;18.52;;;;;;;5.42;82.17;96361.38;5046094;28;20045;-59
2021/04/01 04:36:05;;;;;;;21.70;17.52;;;;;;;5.42;81.87;96362.19;5047653;28;20056;-59
2021/04/01 04:38:33;;;;;;;25.38;20.15;;;;;;;5.43;82.18;96353.31;5028972;28;20041;-59
2021/04/01 04:41:01;;;;;;;24.10;18.58;;;;;;;5.44;82.11;96357.53;5013024;28;20045;-64
2021/04/01 04:43:32;;;;;;;29.13;18.83;;;;;;;5.46;82.33;96352.91;5015362;28;20364;-59
2021/04/01 04:46:00;;;;;;;28.42;19.45;;;;;;;5.47;82.35;96351.06;4997955;28;20050;-59
2021/04/01 04:48:27;;;;;;;26.02;20.05;;;;;;;5.49;82.34;96354.28;5019393;28;20064;-59
2021/04/01 04:50:55;;;;;;;33.65;20.50;;;;;;;5.52;82.17;96353.88;5033808;28;20048;-59
2021/04/01 04:53:24;;;;;;;25.92;17.90;;;;;;;5.57;82.06;96350.63;5015353;28;20046;-59
2021/04/01 04:56:13;;;;;;;29.20;19.67;;;;;;;5.57;82.39;96350.63;5019144;28;20100;-59
2021/04/01 05:06:56;;;;;;;29.98;16.50;;;;;;;5.80;81.50;96355.25;5017086;28;21023;-59
2021/04/01 05:09:24;;;;;;;36.40;20.00;;;;;;;5.83;81.84;96366.13;5050603;28;20461;-59
2021/04/01 05:11:51;;;;;;;27.88;17.15;;;;;;;5.89;81.91;96354.00;5031492;28;20486;-59
2021/04/01 05:14:18;;;;;;;34.88;20.50;;;;;;;5.97;81.49;96356.31;5018422;28;20060;-59
2021/04/01 05:16:46;;;;;;;31.15;20.80;;;;;;;6.04;81.00;96355.47;5018032;28;20045;-59
2021/04/01 05:19:14;;;;;;;28.60;20.08;;;;;;;6.11;81.84;96362.25;5017015;28;20050;-63
2021/04/01 05:21:51;;;;;;;29.85;20.23;;;;;;;6.15;81.39;96355.59;5019552;28;20619;-59
2021/04/01 05:24:20;;;;;;;29.98;17.23;;;;;;;6.19;80.94;96361.19;5050920;28;20064;-59
2021/04/01 05:29:29;;;;;;;23.42;16.10;;;;;;;6.30;80.17;96354.44;5016005;28;20049;-59
2021/04/01 05:31:56;;;;;;;32.00;17.88;;;;;;;6.34;79.98;96352.19;5019490;28;20045;-59
2021/04/01 05:34:25;;;;;;;27.42;16.08;;;;;;;6.29;80.41;96345.75;5018502;28;20060;-60
2021/04/01 05:36:54;;;;;;;26.65;15.65;;;;;;;6.29;80.22;96347.59;5019216;28;20062;-59
2021/04/01 05:39:29;;;;;;;28.50;19.20;;;;;;;6.31;80.48;96356.03;5011048;28;20049;-59
2021/04/01 05:41:59;;;;;;;28.15;17.17;;;;;;;6.36;80.83;96344.91;5018380;28;20045;-59
2021/04/01 05:47:11;;;;;;;40.00;22.73;;;;;;;6.49;81.47;96357.88;5016411;28;20041;-58
2021/04/01 05:58:00;;;;;;;52.70;31.42;;;;;;;6.95;82.52;96347.88;5031401;28;20498;-58
2021/04/01 06:03:14;;;;;;;52.95;27.73;;;;;;;7.39;80.38;96348.47;5014724;28;20068;-58
2021/04/01 06:05:45;;;;;;;61.80;33.35;;;;;;;7.60;80.31;96341.09;5046558;28;20049;-59
2021/04/01 06:08:20;;;;;;;62.47;34.90;;;;;;;7.72;80.74;96345.56;5016106;28;21548;-58
2021/04/01 06:10:50;;;;;;;58.83;34.22;;;;;;;7.75;80.51;96337.22;5009022;28;20770;-58
2021/04/01 06:13:22;;;;;;;47.88;30.42;;;;;;;7.91;79.37;96341.00;5004061;28;20064;-58
2021/04/01 06:15:51;;;;;;;48.25;30.95;;;;;;;7.98;78.16;96337.25;5010585;28;20534;-58
2021/04/01 06:18:22;;;;;;;54.58;31.05;;;;;;;8.04;77.82;96332.13;5005011;28;20382;-58
2021/04/01 06:20:50;;;;;;;53.85;33.97;;;;;;;8.10;78.69;96328.56;5030329;28;20505;-58
2021/04/01 06:23:30;;;;;;;51.95;34.95;;;;;;;8.15;78.21;96332.09;5015340;28;20054;-58
2021/04/01 06:25:59;;;;;;;55.30;33.20;;;;;;;8.20;78.29;96328.78;5014761;28;20046;-58
2021/04/01 06:28:45;;;;;;;58.17;36.65;;;;;;;8.22;78.31;96318.84;5014081;28;20626;-59
2021/04/01 06:31:23;;;;;;;55.20;34.33;;;;;;;8.21;77.81;96327.75;5015327;28;20053;-59
2021/04/01 06:33:55;;;;;;;67.40;34.25;;;;;;;8.23;77.48;96314.41;5012091;28;20077;-60
2021/04/01 06:36:27;;;;;;;62.88;36.17;;;;;;;8.36;77.79;96310.69;5011171;28;20137;-58
2021/04/01 06:38:54;;;;;;;66.45;38.45;;;;;;;8.42;77.23;96315.84;5012256;28;20056;-58
2021/04/01 06:41:29;;;;;;;57.92;36.42;;;;;;;8.42;77.60;96312.44;4983996;28;20050;-58
2021/04/01 06:44:44;;;;;;;66.28;37.45;;;;;;;8.44;77.74;96308.53;5010194;28;20152;-62
2021/04/01 06:47:19;;;;;;;53.85;35.85;;;;;;;8.46;78.06;96300.41;4991806;28;20053;-59
2021/04/01 06:50:00;;;;;;;52.50;35.63;;;;;;;8.55;77.40;96306.13;5011057;28;20049;-60
2021/04/01 06:52:46;;;;;;;58.67;36.05;;;;;;;8.63;77.43;96289.19;5010405;28;20053;-58
2021/04/01 06:55:41;;;;;;;50.60;31.45;;;;;;;8.80;77.08;96284.75;5019207;28;20052;-59
2021/04/01 06:58:31;;;;;;;48.53;31.20;;;;;;;8.93;76.21;96287.13;5013651;28;20869;-60
2021/04/01 07:01:46;;;;;;;49.42;31.48;;;;;;;9.13;75.80;96291.16;5023171;28;20054;-60
2021/04/01 07:04:10;;;;;;;45.63;28.58;;;;;;;9.27;75.30;96283.75;5016415;28;20049;-60
2021/04/01 07:06:44;;;;;;;45.42;27.38;;;;;;;9.32;74.98;96281.22;5008457;28;20382;-59
2021/04/01 07:12:18;;;;;;;42.25;26.92;;;;;;;9.52;73.94;96264.94;5010137;28;20045;-59
2021/04/01 07:14:49;;;;;;;41.33;25.38;;;;;;;9.63;73.92;96267.72;5020508;28;20567;-60
2021/04/01 07:20:19;;;;;;;36.95;22.25;;;;;;;9.87;73.28;96260.44;5013376;28;20065;-63
2021/04/01 07:48:03;;;;;;;21.15;12.95;;;;;;;11.12;69.32;96223.09;5010805;28;21918;-60
2021/04/01 07:50:39;;;;;;;20.08;13.63;;;;;;;11.21;68.44;96219.72;4976779;28;20619;-59
2021/04/01 07:53:07;;;;;;;18.60;12.48;;;;;;;11.29;68.29;96215.81;5011051;28;20421;-59
2021/04/01 08:04:09;;;;;;;19.52;12.80;;;;;;;11.77;67.09;96209.78;5011083;28;20053;-62
2021/04/01 08:06:38;;;;;;;19.35;13.35;;;;;;;11.83;66.48;96193.69;5043565;28;20054;-60
2021/04/01 08:09:08;;;;;;;19.75;14.27;;;;;;;11.85;66.25;96190.81;5018100;28;20084;-63
2021/04/01 08:11:47;;;;;;;17.35;12.90;;;;;;;11.93;65.82;96198.25;5038462;28;20061;-60
2021/04/01 08:14:40;;;;;;;19.52;13.38;;;;;;;12.01;66.25;96189.06;5018036;28;20638;-59
2021/04/01 08:17:18;;;;;;;20.63;14.32;;;;;;;12.13;65.96;96192.28;5018512;28;20061;-61
2021/04/01 08:19:50;;;;;;;16.98;13.70;;;;;;;12.26;65.69;96179.66;5019816;28;20046;-60
2021/04/01 08:22:47;;;;;;;19.35;13.13;;;;;;;12.45;65.34;96182.63;5016690;28;20045;-60
2021/04/01 08:34:49;;;;;;;19.15;12.10;;;;;;;13.01;64.05;96167.84;5032162;28;20058;-59
2021/04/01 08:37:44;;;;;;;15.75;12.23;;;;;;;13.17;63.54;96158.84;5035388;28;20056;-59
2021/04/01 08:40:32;;;;;;;12.68;10.43;;;;;;;13.40;63.08;96156.75;5017918;28;20046;-60
2021/04/01 08:43:49;;;;;;;18.52;12.05;;;;;;;13.58;62.59;96144.78;5051562;28;20076;-60
2021/04/01 08:46:55;;;;;;;17.80;12.60;;;;;;;13.77;62.43;96139.69;5012261;28;20061;-64
2021/04/01 08:49:51;;;;;;;15.88;12.00;;;;;;;14.02;61.66;96139.88;5012825;28;20064;-59
2021/04/01 08:52:31;;;;;;;12.82;11.52;;;;;;;14.19;61.55;96131.56;4994369;28;20056;-59
2021/04/01 08:55:14;;;;;;;15.68;11.40;;;;;;;14.32;60.89;96128.31;5034581;28;20045;-58
2021/04/01 08:58:02;;;;;;;15.20;12.50;;;;;;;14.43;60.03;96127.19;5012466;28;20049;-60
2021/04/01 09:00:31;;;;;;;18.27;12.18;;;;;;;14.52;59.23;96118.63;5035718;28;20068;-59
2021/04/01 09:02:59;;;;;;;14.13;11.10;;;;;;;14.60;59.53;96110.06;5029189;28;20053;-59
2021/04/01 09:05:26;;;;;;;21.73;13.13;;;;;;;14.68;59.98;96109.53;5010329;28;20061;-59
2021/04/01 09:08:03;;;;;;;15.55;12.65;;;;;;;14.82;59.70;96101.72;5016215;28;20058;-59
2021/04/01 09:10:39;;;;;;;20.30;12.77;;;;;;;14.96;58.51;96101.84;4998404;28;20041;-62
2021/04/01 09:13:13;;;;;;;18.33;12.43;;;;;;;15.03;58.17;96094.38;5020706;28;20057;-59
2021/04/01 09:18:27;;;;;;;15.77;12.48;;;;;;;15.28;58.57;96081.09;5017960;28;20042;-59
2021/04/01 09:20:58;;;;;;;22.25;12.63;;;;;;;15.43;58.92;96082.84;5019654;28;20053;-59
2021/04/01 09:23:40;;;;;;;27.35;13.77;;;;;;;15.51;57.54;96079.53;5012974;28;20064;-59
2021/04/01 09:26:10;;;;;;;16.75;11.10;;;;;;;15.64;58.38;96073.53;5001530;28;20049;-59
2021/04/01 09:28:44;;;;;;;20.48;12.55;;;;;;;15.81;56.96;96073.06;5043091;28;20076;-59
2021/04/01 09:31:14;;;;;;;16.92;12.30;;;;;;;15.92;56.88;96068.44;5037481;28;20053;-61
2021/04/01 09:33:42;;;;;;;16.98;11.25;;;;;;;16.02;57.09;96064.84;5023870;28;20057;-60
2021/04/01 09:36:22;;;;;;;16.55;12.05;;;;;;;16.16;56.38;96056.97;5033429;28;20049;-60
2021/04/01 09:39:12;;;;;;;22.38;12.15;;;;;;;16.25;55.45;96047.25;5037662;28;20053;-61
2021/04/01 09:41:40;;;;;;;14.00;10.25;;;;;;;16.36;55.46;96050.56;5012097;28;20049;-60
2021/04/01 09:44:09;;;;;;;14.77;10.95;;;;;;;16.49;55.19;96033.03;5013548;28;20045;-59
2021/04/01 09:48:04;;;;;;;10.98;9.93;;;;;;;16.68;55.59;96030.34;3592222;39;20534;-59
2021/04/01 09:50:34;;;;;;;16.63;11.32;;;;;;;16.84;54.15;96030.09;3576239;39;20091;-59
2021/04/01 09:53:06;;;;;;;16.38;9.93;;;;;;;16.99;54.20;96023.72;3577143;39;20629;-59
2021/04/01 09:55:40;;;;;;;18.27;12.02;;;;;;;17.09;54.13;96022.75;3584315;39;20141;-58
2021/04/01 09:58:39;;;;;;;16.77;10.38;;;;;;;17.24;52.51;96016.34;3581783;39;20118;-59
2021/04/01 10:01:26;;;;;;;16.67;9.68;;;;;;;17.36;52.70;96019.31;3578929;39;20065;-59
2021/04/01 10:04:02;;;;;;;10.93;8.90;;;;;;;17.54;52.21;96006.94;3576896;39;20067;-60
2021/04/01 10:06:51;;;;;;;;;;;;;;;17.76;51.41;96000.09;3580550;39;20072;-59
2021/04/01 10:09:19;;;;;;;11.50;8.13;;;;;;;17.96;51.41;95997.00;3582442;39;20258;-61
2021/04/01 10:11:48;;;;;;;12.02;8.00;;;;;;;18.12;50.64;95986.78;3577447;39;20638;-61
2021/04/01 10:14:16;;;;;;;11.10;6.68;;;;;;;18.28;50.19;95987.22;3579731;39;20091;-61
2021/04/01 10:17:00;;;;;;;9.35;6.25;;;;;;;18.47;48.45;95972.09;3574133;39;20068;-61
2021/04/01 10:19:31;;;;;;;8.80;5.18;;;;;;;18.73;46.54;95986.38;3578324;39;20069;-59
2021/04/01 10:21:58;;;;;;;7.68;4.88;;;;;;;18.90;44.18;95976.84;3577573;39;20083;-60
2021/04/01 10:24:34;;;;;;;9.95;4.22;;;;;;;19.07;44.30;95978.06;3587057;39;20065;-60
2021/04/01 10:27:16;;;;;;;9.25;4.57;;;;;;;19.26;42.83;95967.13;3576921;39;20087;-60
2021/04/01 10:32:39;;;;;;;8.68;4.65;;;;;;;19.55;39.87;95958.53;3583299;39;20087;-59
2021/04/01 10:35:09;;;;;;;6.20;4.32;;;;;;;19.65;41.08;95947.53;3584376;39;20072;-59
2021/04/01 10:37:45;;;;;;;6.63;4.28;;;;;;;19.76;41.56;95956.03;3577538;39;20073;-58
2021/04/01 10:40:14;;;;;;;7.90;4.18;;;;;;;19.86;39.87;95949.63;3580319;39;20076;-59
2021/04/01 10:42:46;;;;;;;9.70;4.03;;;;;;;19.99;40.16;95942.53;3581671;39;20068;-59
2021/04/01 10:45:21;;;;;;;6.90;4.20;;;;;;;20.10;39.66;95943.78;3583942;39;20064;-59
2021/04/01 10:47:57;;;;;;;5.82;3.83;;;;;;;20.12;39.31;95946.94;3584483;39;20072;-60
2021/04/01 10:50:27;;;;;;;9.57;4.72;;;;;;;20.20;38.71;95934.66;3575888;39;20067;-59
2021/04/01 10:52:56;;;;;;;7.15;4.30;;;;;;;20.22;37.68;95928.97;3579623;39;20072;-59
2021/04/01 10:55:26;;;;;;;7.55;4.32;;;;;;;20.21;38.05;95922.84;3583339;39;20073;-61
2021/04/01 10:57:53;;;;;;;10.63;5.18;;;;;;;20.31;37.24;95921.69;3572436;39;20095;-60
2021/04/01 11:00:21;;;;;;;10.30;4.65;;;;;;;20.34;38.16;95920.28;3579455;39;21403;-60
2021/04/01 11:02:54;;;;;;;7.25;4.85;;;;;;;20.38;37.84;95918.53;3565041;40;20409;-59
2021/04/01 11:05:24;;;;;;;15.73;4.88;;;;;;;20.39;33.37;95909.38;3577976;39;20057;-60
2021/04/01 11:08:05;;;;;;;10.82;5.55;;;;;;;20.46;34.18;95912.38;3571490;40;20083;-60
2021/04/01 11:10:34;;;;;;;8.82;4.13;;;;;;;20.47;35.02;95907.78;3571621;40;20061;-59
2021/04/01 11:13:05;;;;;;;5.70;4.00;;;;;;;20.52;36.17;95905.72;3572070;39;20080;-59
2021/04/01 11:15:34;;;;;;;12.35;5.03;;;;;;;20.57;34.79;95905.56;3573034;40;20065;-59
2021/04/01 11:18:01;;;;;;;9.90;4.53;;;;;;;20.53;35.74;95898.50;3570741;40;20100;-60
2021/04/01 11:20:38;;;;;;;9.25;4.13;;;;;;;20.37;34.79;95895.56;3575837;39;22751;-60
2021/04/01 11:23:09;;;;;;;8.32;4.07;;;;;;;20.39;35.14;95896.00;3572036;40;20436;-60
2021/04/01 11:25:38;;;;;;;6.97;3.58;;;;;;;20.40;33.51;95889.53;3579044;39;20072;-59
2021/04/01 11:28:06;;;;;;;6.97;3.80;;;;;;;20.44;33.38;95890.47;3578320;39;20084;-60
2021/04/01 11:30:52;;;;;;;9.02;3.60;;;;;;;20.55;33.94;95890.91;3571142;40;20069;-59
2021/04/01 11:33:25;;;;;;;5.82;4.15;;;;;;;20.66;34.76;95891.34;3565796;40;20069;-60
2021/04/01 11:36:05;;;;;;;6.88;3.85;;;;;;;20.72;32.37;95880.13;3567552;40;20068;-61
2021/04/01 11:38:42;;;;;;;8.45;3.97;;;;;;;20.80;33.19;95883.91;3575080;39;20075;-59
2021/04/01 11:41:13;;;;;;;7.50;4.07;;;;;;;20.88;32.89;95880.38;3574361;39;20091;-61
2021/04/01 11:43:41;;;;;;;6.85;4.15;;;;;;;20.93;32.97;95875.97;3571313;40;20061;-61
2021/04/01 11:46:30;;;;;;;8.23;3.78;;;;;;;20.99;32.12;95871.97;3577864;39;21525;-61
2021/04/01 11:48:59;;;;;;;7.50;3.58;;;;;;;21.05;33.14;95866.09;3578760;39;20076;-60
2021/04/01 11:51:33;;;;;;;4.88;3.92;;;;;;;21.12;33.36;95862.13;3577661;39;20092;-59
2021/04/01 11:54:11;;;;;;;5.32;3.22;;;;;;;21.17;32.76;95860.03;3579329;39;20061;-60
2021/04/01 11:56:42;;;;;;;5.78;3.78;;;;;;;21.18;31.79;95861.63;3576756;39;20076;-59
2021/04/01 11:59:23;;;;;;;3.40;2.78;;;;;;;21.16;29.90;95858.47;3572311;40;20072;-58
2021/04/01 12:02:00;;;;;;;4.30;2.55;;;;;;;21.17;31.94;95849.31;3576614;39;20080;-60
2021/04/01 12:04:31;;;;;;;;;;;;;;;21.23;30.20;95841.84;3579455;39;20402;-60
2021/04/01 12:06:58;;;;;;;4.70;2.88;;;;;;;21.31;31.56;95848.28;3570465;40;19933;-60
2021/04/01 12:09:26;;;;;;;13.77;3.60;;;;;;;21.30;32.00;95842.09;3578535;39;20062;-59
2021/04/01 12:11:54;;;;;;;6.47;2.58;;;;;;;21.32;32.09;95823.78;3570270;40;20060;-58
2021/04/01 12:14:38;;;;;;;8.00;2.97;;;;;;;21.42;30.81;95822.63;3578329;39;20076;-60
2021/04/01 12:17:07;;;;;;;7.85;3.13;;;;;;;21.44;31.84;95822.28;3579501;39;20073;-58
2021/04/01 12:19:35;;;;;;;7.22;3.30;;;;;;;21.44;31.40;95825.78;3568732;40;20073;-58
2021/04/01 12:22:08;;;;;;;5.30;2.90;;;;;;;21.48;32.34;95818.63;3571405;40;20583;-58
2021/04/01 12:24:37;;;;;;;6.05;2.80;;;;;;;21.51;31.73;95806.47;3578526;39;20077;-59
2021/04/01 12:27:05;;;;;;;11.52;3.47;;;;;;;21.55;31.72;95814.63;3571019;40;20081;-58
2021/04/01 12:29:32;;;;;;;6.07;2.97;;;;;;;21.53;32.23;95796.19;3579012;39;20330;-59
2021/04/01 12:32:00;;;;;;;9.77;2.85;;;;;;;21.62;32.30;95804.16;3578291;39;20077;-61
2021/04/01 12:34:30;;;;;;;8.38;2.80;;;;;;;21.64;30.67;95796.56;3570880;40;20073;-59
2021/04/01 12:37:04;;;;;;;5.13;3.03;;;;;;;21.72;30.70;95793.03;3572939;40;20073;-58
2021/04/01 12:39:38;;;;;;;6.95;3.83;;;;;;;21.74;30.87;95785.41;3579208;39;20175;-60
2021/04/01 12:42:06;;;;;;;16.77;9.23;;;;;;;21.83;30.79;95784.56;3569728;40;20092;-59
2021/04/01 12:44:39;;;;;;;11.50;4.20;;;;;;;21.89;30.50;95780.53;3571701;40;20087;-58
2021/04/01 12:47:07;;;;;;;6.05;3.70;;;;;;;21.86;30.31;95773.94;3572349;40;20409;-59
2021/04/01 12:49:36;;;;;;;6.43;3.38;;;;;;;21.79;30.78;95777.16;3573973;40;20065;-59
2021/04/01 12:52:07;;;;;;;7.13;3.25;;;;;;;21.80;30.57;95772.56;3571654;40;20077;-59
2021/04/01 12:54:38;;;;;;;5.03;2.22;;;;;;;21.83;30.35;95760.41;3579224;39;20073;-59
2021/04/01 12:57:16;;;;;;;7.10;3.58;;;;;;;21.90;28.78;95752.56;3568961;40;20295;-58
2021/04/01 13:00:04;;;;;;;11.77;2.95;;;;;;;21.98;28.89;95740.94;3572565;40;20557;-59
2021/04/01 13:02:32;;;;;;;10.57;3.58;;;;;;;22.03;27.78;95738.03;3578936;39;20476;-58
2021/04/01 13:05:02;;;;;;;7.28;2.88;;;;;;;22.09;27.53;95738.59;3578509;39;20154;-59
2021/04/01 13:07:50;;;;;;;5.53;2.90;;;;;;;22.17;27.52;95726.19;3572563;40;20111;-58
2021/04/01 13:12:50;;;;;;;5.88;2.50;;;;;;;22.37;26.88;95722.59;3578104;39;20081;-58
2021/04/01 13:15:17;;;;;;;6.32;2.60;;;;;;;22.44;26.83;95714.00;3579853;39;20060;-58
2021/04/01 13:17:45;;;;;;;10.52;2.92;;;;;;;22.55;26.73;95714.34;3578161;39;20080;-59
2021/04/01 13:20:14;;;;;;;4.97;2.13;;;;;;;22.64;25.59;95706.94;3578524;39;20406;-59
2021/04/01 13:22:57;;;;;;;3.72;2.75;;;;;;;22.77;26.53;95693.47;3578817;39;20069;-57
2021/04/01 13:25:24;;;;;;;6.40;2.25;;;;;;;22.97;26.72;95692.50;3568763;40;20073;-59
2021/04/01 13:27:53;;;;;;;3.80;2.35;;;;;;;23.11;25.77;95681.38;3568251;40;20084;-60